Time;durP1;ratioP1;P1;durP2;ratioP2;P2;SDS_P1;SDS_P2;PMS_P1;PMS_P2;Temp;Humidity;BMP_temperature;BMP_pressure;BME280_temperature;BME280_humidity;BME280_pressure;Samples;Min_cycle;Max_cycle;Signal;HPM_P1;HPM_P2
2021/12/10 00:00:47;;;;;;;23.77;13.50;;;;;;;;;;5055751;28;20403;-53
2021/12/10 00:03:16;;;;;;;25.00;14.17;;;;;;;;;;5055404;28;20408;-53
2021/12/10 00:05:45;;;;;;;22.83;13.43;;;;;;;;;;5054051;28;20404;-57
2021/12/10 00:08:11;;;;;;;27.40;13.00;;;;;;;;;;5055332;28;20815;-56
2021/12/10 00:10:40;;;;;;;29.53;14.07;;;;;;;;;;5055277;28;20400;-56
2021/12/10 00:13:07;;;;;;;22.70;11.90;;;;;;;;;;5053900;28;20447;-57
2021/12/10 00:15:33;;;;;;;31.20;11.83;;;;;;;;;;5055075;28;20400;-56
2021/12/10 00:18:01;;;;;;;21.97;12.43;;;;;;;;;;5055088;28;20471;-59
2021/12/10 00:20:29;;;;;;;22.27;12.33;;;;;;;;;;5054818;28;20455;-53
2021/12/10 00:22:59;;;;;;;22.23;12.27;;;;;;;;;;5054982;28;20515;-57
2021/12/10 00:25:34;;;;;;;27.87;13.03;;;;;;;;;;5055151;28;20400;-57
2021/12/10 00:28:01;;;;;;;22.43;13.10;;;;;;;;;;5055146;28;20403;-55
2021/12/10 00:30:31;;;;;;;23.67;12.60;;;;;;;;;;5054815;28;20403;-55
2021/12/10 00:33:03;;;;;;;23.43;12.13;;;;;;;;;;5055076;28;20466;-63
2021/12/10 00:35:30;;;;;;;21.10;12.77;;;;;;;;;;5054615;28;20465;-59
2021/12/10 00:37:56;;;;;;;21.20;11.43;;;;;;;;;;5054702;28;20600;-54
2021/12/10 00:40:22;;;;;;;21.17;11.93;;;;;;;;;;5054688;28;20396;-52
2021/12/10 00:42:48;;;;;;;30.33;12.80;;;;;;;;;;5053455;28;20511;-56
2021/12/10 00:45:15;;;;;;;24.30;12.13;;;;;;;;;;5054622;28;20412;-53
2021/12/10 00:47:42;;;;;;;22.37;11.47;;;;;;;;;;5054483;28;20414;-52
2021/12/10 00:50:10;;;;;;;19.43;11.47;;;;;;;;;;5054473;28;20404;-55
2021/12/10 00:52:36;;;;;;;20.83;12.40;;;;;;;;;;5054745;28;20776;-59
2021/12/10 00:55:02;;;;;;;22.63;12.10;;;;;;;;;;5054507;28;20418;-57
2021/12/10 00:57:28;;;;;;;19.63;11.23;;;;;;;;;;5054631;28;20570;-57
2021/12/10 00:59:54;;;;;;;24.50;12.87;;;;;;;;;;5054262;28;20924;-55
2021/12/10 01:02:22;;;;;;;21.57;11.33;;;;;;;;;;5054437;28;20443;-53
2021/12/10 01:04:50;;;;;;;20.97;10.57;;;;;;;;;;5054466;28;20408;-63
2021/12/10 01:07:17;;;;;;;22.23;12.13;;;;;;;;;;5054448;28;20415;-54
2021/12/10 01:09:45;;;;;;;22.30;11.60;;;;;;;;;;5054258;28;20406;-62
2021/12/10 01:12:14;;;;;;;20.70;12.23;;;;;;;;;;5054135;28;20420;-56
2021/12/10 01:15:38;;;;;;;24.17;12.37;;;;;;;;;;5054083;28;20921;-56
2021/12/10 01:25:56;;;;;;;28.43;13.47;;;;;;;;;;5053862;28;20951;-53
2021/12/10 01:28:22;;;;;;;29.03;13.40;;;;;;;;;;5053747;28;20415;-57
2021/12/10 01:30:48;;;;;;;23.60;13.77;;;;;;;;;;5052669;28;20423;-52
2021/12/10 01:33:16;;;;;;;27.90;13.50;;;;;;;;;;5053720;28;20494;-59
2021/12/10 01:35:45;;;;;;;24.63;13.93;;;;;;;;;;5053630;28;20415;-57
2021/12/10 01:38:12;;;;;;;21.17;13.10;;;;;;;;;;5053076;28;20443;-52
2021/12/10 01:40:39;;;;;;;26.47;13.07;;;;;;;;;;5053492;28;20412;-52
2021/12/10 01:43:08;;;;;;;25.57;12.73;;;;;;;;;;5053604;28;20404;-54
2021/12/10 01:45:46;;;;;;;26.37;14.30;;;;;;;;;;5053386;28;20507;-53
2021/12/10 01:48:19;;;;;;;27.37;14.63;;;;;;;;;;5053490;28;20403;-57
2021/12/10 01:50:46;;;;;;;33.03;15.80;;;;;;;;;;5052319;28;20412;-56
2021/12/10 01:53:13;;;;;;;30.13;15.40;;;;;;;;;;5053289;28;20435;-56
2021/12/10 01:55:45;;;;;;;29.17;15.70;;;;;;;;;;5053561;28;20412;-53
2021/12/10 01:58:12;;;;;;;27.27;15.87;;;;;;;;;;5053233;28;20420;-57
2021/12/10 02:00:40;;;;;;;33.70;15.40;;;;;;;;;;5053140;28;20404;-53
2021/12/10 02:03:06;;;;;;;30.27;15.87;;;;;;;;;;5051805;28;20420;-55
2021/12/10 02:05:33;;;;;;;31.17;15.37;;;;;;;;;;5052993;28;20400;-53
2021/12/10 02:08:00;;;;;;;35.10;15.97;;;;;;;;;;5053076;28;20407;-53
2021/12/10 02:10:28;;;;;;;33.30;15.43;;;;;;;;;;5053436;28;20412;-54
2021/12/10 02:12:54;;;;;;;33.70;15.70;;;;;;;;;;5052265;28;20423;-54
2021/12/10 02:15:22;;;;;;;31.73;16.17;;;;;;;;;;5053368;28;20769;-52
2021/12/10 02:17:50;;;;;;;32.57;15.70;;;;;;;;;;5053135;28;20476;-53
2021/12/10 02:20:19;;;;;;;28.40;15.60;;;;;;;;;;5052936;28;20452;-51
2021/12/10 02:22:46;;;;;;;28.67;15.20;;;;;;;;;;5051679;28;20884;-52
2021/12/10 02:25:13;;;;;;;27.53;15.30;;;;;;;;;;5053263;28;20408;-52
2021/12/10 02:27:39;;;;;;;28.90;14.53;;;;;;;;;;5052880;28;20920;-52
2021/12/10 02:30:07;;;;;;;24.03;15.03;;;;;;;;;;5052092;28;20784;-52
2021/12/10 02:32:33;;;;;;;30.87;14.70;;;;;;;;;;5052951;28;20916;-54
2021/12/10 02:34:59;;;;;;;32.03;13.27;;;;;;;;;;5052932;28;20408;-52
2021/12/10 02:37:25;;;;;;;25.50;13.80;;;;;;;;;;5052858;28;20485;-51
2021/12/10 02:39:51;;;;;;;26.67;13.73;;;;;;;;;;5052859;28;20411;-51
2021/12/10 02:42:17;;;;;;;25.73;14.37;;;;;;;;;;5053049;28;20434;-51
2021/12/10 02:44:43;;;;;;;19.80;13.07;;;;;;;;;;5052859;28;20411;-52
2021/12/10 02:47:09;;;;;;;25.83;14.27;;;;;;;;;;5052980;28;20416;-51
2021/12/10 02:49:36;;;;;;;23.60;13.83;;;;;;;;;;5051975;28;20816;-50
2021/12/10 02:52:02;;;;;;;20.20;12.80;;;;;;;;;;5052772;28;20415;-50
2021/12/10 02:54:34;;;;;;;23.30;13.10;;;;;;;;;;5052701;28;20411;-53
2021/12/10 02:57:05;;;;;;;24.17;13.10;;;;;;;;;;5052626;28;20572;-52
2021/12/10 02:59:31;;;;;;;25.13;13.30;;;;;;;;;;5052600;28;20414;-51
2021/12/10 03:01:58;;;;;;;21.60;12.10;;;;;;;;;;5052600;28;20427;-54
2021/12/10 03:04:26;;;;;;;20.93;11.77;;;;;;;;;;5052599;28;21108;-51
2021/12/10 03:06:55;;;;;;;19.23;12.50;;;;;;;;;;5052745;28;20438;-53
2021/12/10 03:09:22;;;;;;;19.07;11.87;;;;;;;;;;5052405;28;20411;-51
2021/12/10 03:11:49;;;;;;;15.40;9.73;;;;;;;;;;5052860;28;20769;-51
2021/12/10 03:14:20;;;;;;;20.67;10.60;;;;;;;;;;5052373;28;20973;-50
2021/12/10 03:16:48;;;;;;;17.90;11.30;;;;;;;;;;5052413;28;20536;-51
2021/12/10 03:19:14;;;;;;;14.63;9.80;;;;;;;;;;5052447;28;20545;-52
2021/12/10 03:21:44;;;;;;;11.97;9.97;;;;;;;;;;5052250;28;20407;-52
2021/12/10 03:24:11;;;;;;;16.30;9.73;;;;;;;;;;5052333;28;20408;-51
2021/12/10 03:26:37;;;;;;;16.80;10.87;;;;;;;;;;5052206;28;20506;-53
2021/12/10 03:29:03;;;;;;;17.87;10.57;;;;;;;;;;5052300;28;20453;-51
2021/12/10 03:31:30;;;;;;;17.10;10.70;;;;;;;;;;5052167;28;20773;-57
2021/12/10 03:33:57;;;;;;;13.77;10.13;;;;;;;;;;5050863;28;20419;-54
2021/12/10 03:36:23;;;;;;;16.37;10.07;;;;;;;;;;5051868;28;20459;-52
2021/12/10 03:38:50;;;;;;;14.73;10.00;;;;;;;;;;5051017;28;20407;-51
2021/12/10 03:41:16;;;;;;;15.50;9.80;;;;;;;;;;5052212;28;20553;-51
2021/12/10 03:43:43;;;;;;;13.10;9.37;;;;;;;;;;5052097;28;20408;-51
2021/12/10 03:46:09;;;;;;;16.80;10.10;;;;;;;;;;5052133;28;20403;-52
2021/12/10 03:48:37;;;;;;;14.40;9.17;;;;;;;;;;5052074;28;20415;-51
2021/12/10 03:51:06;;;;;;;14.20;9.17;;;;;;;;;;5052015;28;20404;-52
2021/12/10 03:53:32;;;;;;;12.80;8.83;;;;;;;;;;5052004;28;20415;-53
2021/12/10 03:55:59;;;;;;;17.00;9.13;;;;;;;;;;5052023;28;20415;-52
2021/12/10 03:58:26;;;;;;;15.00;9.50;;;;;;;;;;5051799;28;20423;-51
2021/12/10 04:00:52;;;;;;;16.30;9.27;;;;;;;;;;5052379;28;20408;-51
2021/12/10 04:03:19;;;;;;;17.73;9.07;;;;;;;;;;5054472;28;20415;-51
2021/12/10 04:05:46;;;;;;;15.60;8.90;;;;;;;;;;5055671;28;20407;-50
2021/12/10 04:08:12;;;;;;;19.50;9.73;;;;;;;;;;5055564;28;20768;-53
2021/12/10 04:10:39;;;;;;;14.33;9.33;;;;;;;;;;5055554;28;20924;-50
2021/12/10 04:13:05;;;;;;;16.57;10.30;;;;;;;;;;5055474;28;20415;-51
2021/12/10 04:15:35;;;;;;;12.97;10.03;;;;;;;;;;5055230;28;20440;-54
2021/12/10 04:18:01;;;;;;;13.67;9.90;;;;;;;;;;5055249;28;20975;-51
2021/12/10 04:20:29;;;;;;;14.83;9.80;;;;;;;;;;5055118;28;20452;-55
2021/12/10 04:22:55;;;;;;;18.27;9.60;;;;;;;;;;5055291;28;20532;-57
2021/12/10 04:25:24;;;;;;;14.50;9.17;;;;;;;;;;5055188;28;20909;-59
2021/12/10 04:27:52;;;;;;;12.20;8.80;;;;;;;;;;5055172;28;20423;-64
2021/12/10 04:30:18;;;;;;;12.80;8.80;;;;;;;;;;5055302;28;20410;-56
2021/12/10 04:32:45;;;;;;;19.33;9.00;;;;;;;;;;5055281;28;20529;-51
2021/12/10 04:35:13;;;;;;;15.90;9.10;;;;;;;;;;5055086;28;20411;-59
2021/12/10 04:37:40;;;;;;;11.43;8.57;;;;;;;;;;5054920;28;20470;-56
2021/12/10 04:40:07;;;;;;;14.60;9.13;;;;;;;;;;5054671;28;20764;-60
2021/12/10 04:42:33;;;;;;;14.57;8.97;;;;;;;;;;5054960;28;20487;-57
2021/12/10 04:45:00;;;;;;;13.47;8.83;;;;;;;;;;5054732;28;20498;-57
2021/12/10 04:47:26;;;;;;;16.30;10.00;;;;;;;;;;5054796;28;20412;-59
2021/12/10 04:49:52;;;;;;;14.90;8.83;;;;;;;;;;5054759;28;20452;-57
2021/12/10 04:52:19;;;;;;;14.13;9.30;;;;;;;;;;5055039;28;20799;-56
2021/12/10 04:54:45;;;;;;;14.17;8.77;;;;;;;;;;5054708;28;20411;-54
2021/12/10 04:57:12;;;;;;;13.73;9.10;;;;;;;;;;5054532;28;20467;-55
2021/12/10 04:59:38;;;;;;;12.23;8.97;;;;;;;;;;5054541;28;20846;-58
2021/12/10 05:02:06;;;;;;;14.87;8.77;;;;;;;;;;5054495;28;20439;-58
2021/12/10 05:04:32;;;;;;;14.30;9.63;;;;;;;;;;5054569;28;20768;-59
2021/12/10 05:06:59;;;;;;;15.80;9.97;;;;;;;;;;5054480;28;20424;-53
2021/12/10 05:09:25;;;;;;;15.17;9.70;;;;;;;;;;5054369;28;20408;-54
2021/12/10 05:11:52;;;;;;;14.87;9.40;;;;;;;;;;5054382;28;20741;-54
2021/12/10 05:14:18;;;;;;;14.30;8.80;;;;;;;;;;5053675;28;20446;-53
2021/12/10 05:16:45;;;;;;;16.37;9.53;;;;;;;;;;5054198;28;20557;-56
2021/12/10 05:19:16;;;;;;;15.20;9.70;;;;;;;;;;5054068;28;20452;-54
2021/12/10 05:21:43;;;;;;;14.23;9.10;;;;;;;;;;5053952;28;20419;-52
2021/12/10 05:24:10;;;;;;;17.07;9.60;;;;;;;;;;5054002;28;20423;-54
2021/12/10 05:26:36;;;;;;;13.50;9.47;;;;;;;;;;5053985;28;20816;-51
2021/12/10 05:29:04;;;;;;;15.77;9.73;;;;;;;;;;5053823;28;20823;-55
2021/12/10 05:31:30;;;;;;;14.87;10.27;;;;;;;;;;5054206;28;20473;-54
2021/12/10 05:33:56;;;;;;;18.40;9.63;;;;;;;;;;5054012;28;20815;-60
2021/12/10 05:36:22;;;;;;;17.10;9.70;;;;;;;;;;5053758;28;20520;-57
2021/12/10 05:38:48;;;;;;;11.63;8.97;;;;;;;;;;5054156;28;20420;-60
2021/12/10 05:41:14;;;;;;;15.77;10.20;;;;;;;;;;5053574;28;20491;-62
2021/12/10 05:43:41;;;;;;;20.53;11.70;;;;;;;;;;5052167;28;20424;-55
2021/12/10 05:46:08;;;;;;;16.97;10.33;;;;;;;;;;5053500;28;20404;-59
2021/12/10 05:48:35;;;;;;;14.83;10.43;;;;;;;;;;5053841;28;20415;-59
2021/12/10 05:51:01;;;;;;;18.50;10.90;;;;;;;;;;5053643;28;20421;-56
2021/12/10 05:53:28;;;;;;;16.03;10.50;;;;;;;;;;5053434;28;20404;-55
2021/12/10 05:55:54;;;;;;;15.43;10.00;;;;;;;;;;5053306;28;20415;-55
2021/12/10 05:58:21;;;;;;;25.77;13.23;;;;;;;;;;5053491;28;20415;-58
2021/12/10 06:00:52;;;;;;;17.77;10.70;;;;;;;;;;5053399;28;20892;-57
2021/12/10 06:03:18;;;;;;;16.83;9.90;;;;;;;;;;5053261;28;20412;-55
2021/12/10 06:05:44;;;;;;;19.30;10.40;;;;;;;;;;5053286;28;20414;-51
2021/12/10 06:08:11;;;;;;;14.47;10.07;;;;;;;;;;5053028;28;20422;-56
2021/12/10 06:10:38;;;;;;;14.43;9.93;;;;;;;;;;5053017;28;20435;-52
2021/12/10 06:13:04;;;;;;;17.60;10.30;;;;;;;;;;5052996;28;20541;-53
2021/12/10 06:15:30;;;;;;;15.27;10.97;;;;;;;;;;5053011;28;20438;-52
2021/12/10 06:17:56;;;;;;;14.37;10.40;;;;;;;;;;5053007;28;20848;-54
2021/12/10 06:20:24;;;;;;;25.87;13.60;;;;;;;;;;5052888;28;21054;-53
2021/12/10 06:22:51;;;;;;;18.67;11.97;;;;;;;;;;5052778;28;20502;-51
2021/12/10 06:25:17;;;;;;;21.60;11.50;;;;;;;;;;5052510;28;20411;-53
2021/12/10 06:27:46;;;;;;;17.00;10.87;;;;;;;;;;5051600;28;20924;-52
2021/12/10 06:30:14;;;;;;;20.67;11.90;;;;;;;;;;5052971;28;20403;-51
2021/12/10 06:32:40;;;;;;;17.37;10.80;;;;;;;;;;5052924;28;20415;-52
2021/12/10 06:35:08;;;;;;;17.50;10.10;;;;;;;;;;5051386;28;20412;-52
2021/12/10 06:37:34;;;;;;;17.97;11.63;;;;;;;;;;5052858;28;20471;-52
2021/12/10 06:40:00;;;;;;;15.30;11.40;;;;;;;;;;5052560;28;20407;-52
2021/12/10 06:42:26;;;;;;;18.40;10.60;;;;;;;;;;5052586;28;20395;-52
2021/12/10 06:44:52;;;;;;;18.47;11.10;;;;;;;;;;5052536;28;20517;-52
2021/12/10 06:47:18;;;;;;;19.57;11.43;;;;;;;;;;5052758;28;20400;-52
2021/12/10 06:49:44;;;;;;;15.20;10.30;;;;;;;;;;5052747;28;20419;-52
2021/12/10 06:52:10;;;;;;;21.13;11.90;;;;;;;;;;5052612;28;20403;-52
2021/12/10 06:54:39;;;;;;;15.03;10.83;;;;;;;;;;5052407;28;20914;-52
2021/12/10 06:57:05;;;;;;;19.00;11.17;;;;;;;;;;5052673;28;20502;-55
2021/12/10 06:59:31;;;;;;;21.77;11.33;;;;;;;;;;5052553;28;20403;-53
2021/12/10 07:01:57;;;;;;;21.70;12.37;;;;;;;;;;5052391;28;20408;-54
2021/12/10 07:04:23;;;;;;;20.97;11.27;;;;;;;;;;5052382;28;20831;-53
2021/12/10 07:06:49;;;;;;;18.10;11.37;;;;;;;;;;5052509;28;20764;-55
2021/12/10 07:09:23;;;;;;;16.27;11.00;;;;;;;;;;5052506;28;20422;-54
2021/12/10 07:11:55;;;;;;;18.10;11.93;;;;;;;;;;5052703;28;20403;-54
2021/12/10 07:14:21;;;;;;;17.63;11.70;;;;;;;;;;5052370;28;20450;-52
2021/12/10 07:16:48;;;;;;;21.77;12.20;;;;;;;;;;5052337;28;20469;-52
2021/12/10 07:19:15;;;;;;;17.60;10.80;;;;;;;;;;5050809;28;20467;-53
2021/12/10 07:21:41;;;;;;;20.20;12.53;;;;;;;;;;5052072;28;20411;-52
2021/12/10 07:24:09;;;;;;;22.17;11.97;;;;;;;;;;5052291;28;20408;-53
2021/12/10 07:26:36;;;;;;;19.60;12.20;;;;;;;;;;5052200;28;20407;-52
2021/12/10 07:29:02;;;;;;;19.30;13.20;;;;;;;;;;5052098;28;20427;-54
2021/12/10 07:31:29;;;;;;;20.03;12.37;;;;;;;;;;5050624;28;20414;-51
2021/12/10 07:33:56;;;;;;;18.40;12.27;;;;;;;;;;5052123;28;21014;-54
2021/12/10 07:36:23;;;;;;;19.47;12.27;;;;;;;;;;5053469;28;20458;-54
2021/12/10 07:38:49;;;;;;;19.13;11.60;;;;;;;;;;5056143;28;20897;-52
2021/12/10 07:41:15;;;;;;;19.90;12.40;;;;;;;;;;5056059;28;20403;-53
2021/12/10 07:43:41;;;;;;;20.07;12.10;;;;;;;;;;5055755;28;20416;-54
2021/12/10 07:46:08;;;;;;;21.30;12.87;;;;;;;;;;5055588;28;20457;-55
2021/12/10 07:48:35;;;;;;;22.53;12.50;;;;;;;;;;5056025;28;20807;-52
2021/12/10 07:51:06;;;;;;;24.47;12.07;;;;;;;;;;5055906;28;20465;-52
2021/12/10 07:53:33;;;;;;;24.80;12.50;;;;;;;;;;5055584;28;20515;-55
2021/12/10 07:56:01;;;;;;;20.47;11.20;;;;;;;;;;5055499;28;20415;-52
2021/12/10 07:58:28;;;;;;;19.13;12.47;;;;;;;;;;5055760;28;20431;-52
2021/12/10 08:00:54;;;;;;;19.33;12.17;;;;;;;;;;5055455;28;20414;-52
2021/12/10 08:03:20;;;;;;;18.23;12.43;;;;;;;;;;5055596;28;20407;-52
2021/12/10 08:05:47;;;;;;;20.90;12.03;;;;;;;;;;5054262;28;20414;-52
2021/12/10 08:08:14;;;;;;;19.30;12.27;;;;;;;;;;5055300;28;20900;-53
2021/12/10 08:10:42;;;;;;;18.77;11.23;;;;;;;;;;5054078;28;20422;-53
2021/12/10 08:13:08;;;;;;;19.20;11.00;;;;;;;;;;5055331;28;20416;-53
2021/12/10 08:15:35;;;;;;;22.50;11.03;;;;;;;;;;5055297;28;20419;-53
2021/12/10 08:18:01;;;;;;;19.70;12.43;;;;;;;;;;5055298;28;20528;-57
2021/12/10 08:20:28;;;;;;;20.83;12.33;;;;;;;;;;5054902;28;20501;-54
2021/12/10 08:22:54;;;;;;;19.90;11.03;;;;;;;;;;5055293;28;20423;-55
2021/12/10 08:25:21;;;;;;;22.07;11.10;;;;;;;;;;5053983;28;20427;-55
2021/12/10 08:27:48;;;;;;;22.10;12.37;;;;;;;;;;5054244;28;20415;-55
2021/12/10 08:30:15;;;;;;;19.27;11.47;;;;;;;;;;5055040;28;20415;-57
2021/12/10 08:32:41;;;;;;;16.27;11.20;;;;;;;;;;5053453;28;20571;-56
2021/12/10 08:35:09;;;;;;;19.47;11.67;;;;;;;;;;5055102;28;20407;-57
2021/12/10 08:37:35;;;;;;;18.93;11.60;;;;;;;;;;5054680;28;21015;-57
2021/12/10 08:40:01;;;;;;;18.03;12.20;;;;;;;;;;5054653;28;20408;-58
2021/12/10 08:42:27;;;;;;;21.57;11.80;;;;;;;;;;5057059;28;20481;-52
2021/12/10 08:44:53;;;;;;;21.53;13.50;;;;;;;;;;5055324;28;20404;-53
2021/12/10 08:47:19;;;;;;;21.63;13.50;;;;;;;;;;5052093;28;20416;-55
2021/12/10 08:49:45;;;;;;;19.57;12.43;;;;;;;;;;5052503;28;20412;-52
2021/12/10 08:52:14;;;;;;;19.80;12.10;;;;;;;;;;5052705;28;20912;-52
2021/12/10 08:54:41;;;;;;;17.27;10.97;;;;;;;;;;5049766;28;20418;-55
2021/12/10 08:57:08;;;;;;;17.00;10.70;;;;;;;;;;5051988;28;20565;-53
2021/12/10 08:59:36;;;;;;;21.03;11.73;;;;;;;;;;5055103;28;20411;-51
2021/12/10 09:02:03;;;;;;;18.13;11.10;;;;;;;;;;5051539;28;20489;-56
2021/12/10 09:04:30;;;;;;;14.97;10.53;;;;;;;;;;5051662;28;20400;-58
2021/12/10 09:07:00;;;;;;;19.73;11.33;;;;;;;;;;5051634;28;20423;-53
2021/12/10 09:09:27;;;;;;;21.10;11.33;;;;;;;;;;5051223;28;20400;-54
2021/12/10 09:11:55;;;;;;;17.00;11.30;;;;;;;;;;5050317;28;20749;-53
2021/12/10 09:14:22;;;;;;;14.83;10.90;;;;;;;;;;5052082;28;20756;-51
2021/12/10 09:16:48;;;;;;;16.00;10.43;;;;;;;;;;5051375;28;20463;-57
2021/12/10 09:19:16;;;;;;;15.17;11.47;;;;;;;;;;5049749;28;20463;-55
2021/12/10 09:21:43;;;;;;;17.07;10.93;;;;;;;;;;5050992;28;20419;-51
2021/12/10 09:24:10;;;;;;;16.73;11.10;;;;;;;;;;5051322;28;20399;-54
2021/12/10 09:26:40;;;;;;;25.00;12.03;;;;;;;;;;5051343;28;20501;-62
2021/12/10 09:29:08;;;;;;;14.80;10.40;;;;;;;;;;5051053;28;20924;-59
2021/12/10 09:31:36;;;;;;;14.17;9.97;;;;;;;;;;5050674;28;20419;-59
2021/12/10 09:34:03;;;;;;;15.83;10.37;;;;;;;;;;5051095;28;20414;-55
2021/12/10 09:36:29;;;;;;;15.60;10.70;;;;;;;;;;5051146;28;20812;-56
2021/12/10 09:38:56;;;;;;;16.73;10.40;;;;;;;;;;5050342;28;21027;-55
2021/12/10 09:41:23;;;;;;;17.40;10.17;;;;;;;;;;5050610;28;20412;-57
2021/12/10 09:43:50;;;;;;;14.97;10.13;;;;;;;;;;5050790;28;20832;-51
2021/12/10 09:46:16;;;;;;;13.90;10.13;;;;;;;;;;5051429;28;20446;-54
2021/12/10 09:48:43;;;;;;;15.50;10.73;;;;;;;;;;5050827;28;20448;-59
2021/12/10 09:51:09;;;;;;;11.57;9.50;;;;;;;;;;5050987;28;20412;-50
2021/12/10 09:53:36;;;;;;;14.67;10.50;;;;;;;;;;5051223;28;20769;-51
2021/12/10 09:56:02;;;;;;;15.67;10.20;;;;;;;;;;5050565;28;20403;-54
2021/12/10 09:58:29;;;;;;;16.20;10.80;;;;;;;;;;5049729;28;20458;-56
2021/12/10 10:00:59;;;;;;;13.07;10.10;;;;;;;;;;5050142;28;20507;-54
2021/12/10 10:03:28;;;;;;;13.70;9.40;;;;;;;;;;5050352;28;20955;-50
2021/12/10 10:05:55;;;;;;;13.77;10.20;;;;;;;;;;5049472;28;20403;-54
2021/12/10 10:08:24;;;;;;;12.17;10.00;;;;;;;;;;5050484;28;20461;-60
2021/12/10 10:10:51;;;;;;;16.23;11.43;;;;;;;;;;5049892;28;20506;-57
2021/12/10 10:13:22;;;;;;;15.43;10.70;;;;;;;;;;5050558;28;20453;-53
2021/12/10 10:15:49;;;;;;;16.27;10.60;;;;;;;;;;5050226;28;20908;-54
2021/12/10 10:18:16;;;;;;;13.17;10.00;;;;;;;;;;5050649;28;20502;-52
2021/12/10 10:20:44;;;;;;;15.60;11.83;;;;;;;;;;5050182;28;20959;-55
2021/12/10 10:23:11;;;;;;;23.73;12.90;;;;;;;;;;5050038;28;20411;-51
2021/12/10 10:25:38;;;;;;;13.67;10.87;;;;;;;;;;5050208;28;20404;-53
2021/12/10 10:28:06;;;;;;;14.30;10.20;;;;;;;;;;5049804;28;20411;-52
2021/12/10 10:30:40;;;;;;;12.70;9.97;;;;;;;;;;5050663;28;20414;-59
2021/12/10 10:33:08;;;;;;;11.27;9.60;;;;;;;;;;5050137;28;20407;-53
2021/12/10 10:35:38;;;;;;;11.37;9.67;;;;;;;;;;5046290;28;20400;-51
2021/12/10 10:38:05;;;;;;;13.80;10.20;;;;;;;;;;5049707;28;20490;-52
2021/12/10 10:40:34;;;;;;;13.30;10.07;;;;;;;;;;5050096;28;20497;-52
2021/12/10 10:43:00;;;;;;;11.43;9.53;;;;;;;;;;5049911;28;20416;-53
2021/12/10 10:45:29;;;;;;;9.67;8.67;;;;;;;;;;5049767;28;20884;-50
2021/12/10 10:47:57;;;;;;;15.13;9.80;;;;;;;;;;5049887;28;20415;-53
2021/12/10 10:50:29;;;;;;;17.37;10.97;;;;;;;;;;5050182;28;20444;-54
2021/12/10 10:52:57;;;;;;;14.53;10.40;;;;;;;;;;5049778;28;20428;-52
2021/12/10 10:55:25;;;;;;;13.47;10.70;;;;;;;;;;5048437;28;20412;-51
2021/12/10 10:58:02;;;;;;;15.53;11.00;;;;;;;;;;5048455;28;20467;-54
2021/12/10 11:00:32;;;;;;;21.50;10.77;;;;;;;;;;5050526;28;20481;-52
2021/12/10 11:03:03;;;;;;;13.17;9.97;;;;;;;;;;5049931;28;20502;-52
2021/12/10 11:05:30;;;;;;;12.70;10.20;;;;;;;;;;5048533;28;20469;-50
2021/12/10 11:07:58;;;;;;;13.43;9.67;;;;;;;;;;5049456;28;20415;-53
2021/12/10 11:10:35;;;;;;;20.90;10.70;;;;;;;;;;5049443;28;20931;-55
2021/12/10 11:13:17;;;;;;;13.93;10.17;;;;;;;;;;5054091;28;20403;-57
2021/12/10 11:15:58;;;;;;;21.27;10.50;;;;;;;;;;5054393;28;20411;-60
2021/12/10 11:18:24;;;;;;;11.90;9.87;;;;;;;;;;5053364;28;20470;-55
2021/12/10 11:20:50;;;;;;;11.30;9.57;;;;;;;;;;5054259;28;20447;-54
2021/12/10 11:23:18;;;;;;;13.77;9.87;;;;;;;;;;5053368;28;20459;-56
2021/12/10 11:25:47;;;;;;;13.20;10.10;;;;;;;;;;5053300;28;20439;-56
2021/12/10 11:28:16;;;;;;;16.60;11.13;;;;;;;;;;5053750;28;20439;-57
2021/12/10 11:30:48;;;;;;;16.43;10.27;;;;;;;;;;5053256;28;20446;-56
2021/12/10 11:33:19;;;;;;;15.67;10.60;;;;;;;;;;5052852;28;20407;-63
2021/12/10 11:35:52;;;;;;;12.77;9.93;;;;;;;;;;5052664;28;20407;-56
2021/12/10 11:38:22;;;;;;;16.90;9.90;;;;;;;;;;5052919;28;20570;-58
2021/12/10 11:40:53;;;;;;;12.77;10.23;;;;;;;;;;5053043;28;20423;-56
2021/12/10 11:46:27;;;;;;;13.90;9.40;;;;;;;;;;5053142;28;20419;-57
2021/12/10 11:48:51;;;;;;;13.40;9.40;;;;;;;;;;5053065;28;20570;-58
2021/12/10 11:51:28;;;;;;;10.13;9.00;;;;;;;;;;5052894;28;20510;-55
2021/12/10 11:53:56;;;;;;;12.07;9.17;;;;;;;;;;5052912;28;20419;-57
2021/12/10 11:56:38;;;;;;;13.30;8.47;;;;;;;;;;5052840;28;20777;-57
2021/12/10 11:59:09;;;;;;;9.70;8.70;;;;;;;;;;5051877;28;21029;-56
2021/12/10 12:01:56;;;;;;;9.93;8.40;;;;;;;;;;5053091;28;20395;-57
2021/12/10 12:04:27;;;;;;;9.00;8.10;;;;;;;;;;5052124;28;20415;-54
2021/12/10 12:07:12;;;;;;;9.37;8.47;;;;;;;;;;5052635;28;20415;-55
2021/12/10 12:09:39;;;;;;;9.90;8.33;;;;;;;;;;5052414;28;20415;-55
2021/12/10 12:12:16;;;;;;;14.13;8.37;;;;;;;;;;5052104;28;20481;-55
2021/12/10 12:14:50;;;;;;;10.83;7.37;;;;;;;;;;5052348;28;20395;-53
2021/12/10 12:17:29;;;;;;;9.50;7.77;;;;;;;;;;5052342;28;20466;-56
2021/12/10 12:19:55;;;;;;;7.37;6.77;;;;;;;;;;5051927;28;20870;-53
2021/12/10 12:25:23;;;;;;;7.00;6.50;;;;;;;;;;5052121;28;20557;-55
2021/12/10 12:28:07;;;;;;;7.27;6.57;;;;;;;;;;5051649;28;20407;-55
2021/12/10 12:30:34;;;;;;;6.87;6.27;;;;;;;;;;5052068;28;20412;-54
2021/12/10 12:33:00;;;;;;;7.10;6.50;;;;;;;;;;5052376;28;20461;-54
2021/12/10 12:35:29;;;;;;;7.43;6.73;;;;;;;;;;5051929;28;20407;-54
2021/12/10 12:38:29;;;;;;;6.93;6.33;;;;;;;;;;5052086;28;20529;-59
2021/12/10 12:41:11;;;;;;;7.60;6.90;;;;;;;;;;5029618;28;20408;-61
2021/12/10 12:43:38;;;;;;;7.03;6.43;;;;;;;;;;5051673;28;20419;-55
2021/12/10 12:46:05;;;;;;;7.37;6.43;;;;;;;;;;5051928;28;20408;-52
2021/12/10 12:48:31;;;;;;;8.40;6.87;;;;;;;;;;5051996;28;20821;-54
2021/12/10 12:51:02;;;;;;;6.60;6.10;;;;;;;;;;5051672;28;20415;-59
2021/12/10 12:53:33;;;;;;;7.67;6.97;;;;;;;;;;5052428;28;20465;-52
2021/12/10 12:56:07;;;;;;;7.80;6.93;;;;;;;;;;5052120;28;20412;-60
2021/12/10 12:58:39;;;;;;;7.00;6.40;;;;;;;;;;5051995;28;20982;-60
2021/12/10 13:01:09;;;;;;;8.47;7.50;;;;;;;;;;5051436;28;20400;-64
2021/12/10 13:03:54;;;;;;;9.07;7.90;;;;;;;;;;5050157;28;20430;-58
2021/12/10 13:06:23;;;;;;;8.23;7.43;;;;;;;;;;5051684;28;20430;-59
2021/12/10 13:09:01;;;;;;;7.93;7.07;;;;;;;;;;5050628;28;20502;-58
2021/12/10 13:11:33;;;;;;;7.73;6.90;;;;;;;;;;5051469;28;20420;-61
2021/12/10 13:14:16;;;;;;;7.60;6.70;;;;;;;;;;5050099;28;20518;-57
2021/12/10 13:16:51;;;;;;;7.47;6.70;;;;;;;;;;5051520;28;20477;-61
2021/12/10 13:19:21;;;;;;;7.23;6.53;;;;;;;;;;5051934;28;20962;-60
2021/12/10 13:21:53;;;;;;;6.97;6.47;;;;;;;;;;5051489;28;20437;-55
2021/12/10 13:24:19;;;;;;;7.20;6.60;;;;;;;;;;5049608;28;20450;-56
2021/12/10 13:26:45;;;;;;;6.60;6.10;;;;;;;;;;5050730;28;20423;-55
2021/12/10 13:29:11;;;;;;;6.77;6.17;;;;;;;;;;5051243;28;20415;-56
2021/12/10 13:31:40;;;;;;;7.10;6.50;;;;;;;;;;5049653;28;20424;-57
2021/12/10 13:34:07;;;;;;;7.87;7.07;;;;;;;;;;5050761;28;20411;-57
2021/12/10 13:36:34;;;;;;;8.20;6.50;;;;;;;;;;5050816;28;20463;-58
2021/12/10 13:39:00;;;;;;;8.20;7.40;;;;;;;;;;5050875;28;20431;-60
2021/12/10 13:41:28;;;;;;;7.60;6.90;;;;;;;;;;5050197;28;20823;-56
2021/12/10 13:44:07;;;;;;;6.67;6.10;;;;;;;;;;5051257;28;20485;-55
2021/12/10 13:46:43;;;;;;;7.07;6.33;;;;;;;;;;5049927;28;20443;-55
2021/12/10 13:49:10;;;;;;;7.17;6.47;;;;;;;;;;5051208;28;20449;-62
2021/12/10 13:51:42;;;;;;;6.83;6.20;;;;;;;;;;5051075;28;20408;-58
2021/12/10 13:54:10;;;;;;;7.00;6.40;;;;;;;;;;5050608;28;20423;-56
2021/12/10 13:56:38;;;;;;;6.90;6.30;;;;;;;;;;5050145;28;21277;-51
2021/12/10 13:59:06;;;;;;;9.03;7.50;;;;;;;;;;5050189;28;20419;-58
2021/12/10 14:01:38;;;;;;;10.87;7.60;;;;;;;;;;5050321;28;20403;-59
2021/12/10 14:04:04;;;;;;;7.80;7.10;;;;;;;;;;5050720;28;20939;-58
2021/12/10 14:06:35;;;;;;;7.00;6.30;;;;;;;;;;5050630;28;20435;-61
2021/12/10 14:09:11;;;;;;;7.30;6.57;;;;;;;;;;5050326;28;20974;-58
2021/12/10 14:11:56;;;;;;;7.30;6.70;;;;;;;;;;5050161;28;20411;-57
2021/12/10 14:14:31;;;;;;;7.67;6.90;;;;;;;;;;5051041;28;20493;-61
2021/12/10 14:16:59;;;;;;;7.77;6.97;;;;;;;;;;5050402;28;20472;-59
2021/12/10 14:19:32;;;;;;;8.27;6.90;;;;;;;;;;5049964;28;20474;-56
2021/12/10 14:21:59;;;;;;;7.43;6.73;;;;;;;;;;5049985;28;20418;-54
2021/12/10 14:24:33;;;;;;;8.37;7.60;;;;;;;;;;5049645;28;20415;-55
2021/12/10 14:27:03;;;;;;;8.30;7.40;;;;;;;;;;5050293;28;20426;-52
2021/12/10 14:29:29;;;;;;;8.30;7.50;;;;;;;;;;5049767;28;20416;-53
2021/12/10 14:31:56;;;;;;;9.50;7.10;;;;;;;;;;5050115;28;20409;-56
2021/12/10 14:34:23;;;;;;;8.83;7.97;;;;;;;;;;5050335;28;20432;-57
2021/12/10 14:37:06;;;;;;;8.97;8.07;;;;;;;;;;5051113;28;20459;-63
2021/12/10 14:39:32;;;;;;;10.30;8.50;;;;;;;;;;5051696;28;20965;-56
2021/12/10 14:41:58;;;;;;;8.43;7.50;;;;;;;;;;5050111;28;20400;-59
2021/12/10 14:44:24;;;;;;;8.17;7.37;;;;;;;;;;5050635;28;20431;-54